METAR Data
IDs: Format: Raw Decoded Include TAF

Data at: 0927 UTC 20 Sep 2018

PAWS 200913Z AUTO 00000KT 4SM BR BKN002 OVC090 09/09 A3013 RMK AO2
PAWS 200905Z AUTO 00000KT 1 3/4SM BR OVC002 09/09 A3013 RMK AO2
PAWS 200848Z AUTO 00000KT 10SM BKN002 BKN031 OVC090 09/09 A3014 RMK AO2
PAWS 200832Z AUTO 00000KT 10SM FEW002 BKN029 OVC090 10/09 A3014 RMK AO2
PAWS 200556Z AUTO 00000KT 10SM OVC075 12/10 A3014 RMK AO2 SLP221 T01170100 10156 20117 53001
PAWS 200356Z AUTO 00000KT 10SM OVC070 13/10 A3013 RMK AO2 SLP220 T01280100
PAWS 200256Z AUTO 00000KT 10SM BKN029 BKN034 OVC070 14/10 A3013 RMK AO2 SLP220 T01390100 56006
PAWS 200222Z AUTO 21003KT 10SM BKN025 14/10 A3013 RMK AO2
PAWS 200156Z AUTO 20005KT 10SM FEW025 14/10 A3013 RMK AO2 SLP220 T01390100
PAWS 200056Z AUTO VRB03KT 10SM FEW025 15/10 A3014 RMK AO2 SLP221 T01500100
PAWS 192356Z AUTO VRB03KT 10SM FEW022 15/09 A3015 RMK AO2 SLP225 T01500089 10150 20100 58010
PAWS 192256Z AUTO 00000KT 10SM SCT018 15/09 A3017 RMK AO2 SLP231 T01500094
PAWS 192245Z AUTO VRB03KT 10SM SCT018 BKN070 14/10 A3017 RMK AO2
PAWS 192156Z AUTO VRB03KT 10SM FEW012 OVC055 13/10 A3018 RMK AO2 SLP235 T01330100
PAWS 192151Z AUTO 00000KT 10SM SCT012 OVC055 13/10 A3018 RMK AO2
PAWS 192116Z AUTO 00000KT 10SM OVC010 12/09 A3019 RMK AO2
PAWS 192056Z AUTO VRB03KT 10SM OVC008 12/09 A3019 RMK AO2 SLP242 T01170094 58005
PAWS 191956Z AUTO 00000KT 10SM OVC008 11/09 A3020 RMK AO2 CIG 006V011 SLP244 T01110094
PAWS 191856Z AUTO 00000KT 10SM OVC006 11/09 A3020 RMK AO2 SLP245 T01060094
PAWS 191659Z AUTO 00000KT 1SM BR OVC008 09/09 A3020 RMK AO2 RVRNO
PAWS 191654Z AUTO 00000KT 2SM BR OVC008 09/09 A3020 RMK AO2 VIS 1 1/4V4
PAWS 191602Z AUTO 00000KT 1/2SM FG BKN010 OVC029 09/09 A3020 RMK AO2 CIG 008V013 RVRNO
PAWS 191556Z AUTO 00000KT 1SM BR BKN010 BKN029 OVC042 09/09 A3020 RMK AO2 RAE06 SLP245 P0000 T00940094 RVRNO
PAWS 191554Z AUTO 00000KT 1 1/2SM BR BKN010 BKN029 OVC045 09/09 A3020 RMK AO2 RAE06 P0000
PAWS 191536Z AUTO 00000KT 4SM BR SCT003 OVC010 10/09 A3021 RMK AO2 RAE06 P0000
PAWS 191528Z AUTO 00000KT 3SM BR BKN003 OVC010 09/09 A3021 RMK AO2 RAE06 P0000
PAWS 191508Z AUTO 00000KT 1 1/4SM BR OVC003 09/09 A3020 RMK AO2 RAE06 P0000
PAWS 191449Z AUTO 00000KT 3/4SM -RA BR OVC003 09/09 A3021 RMK AO2 RAB29 P0000 RVRNO
PAWS 191440Z AUTO 00000KT 1/2SM -RA FG OVC003 09/09 A3021 RMK AO2 RAB29 P0000 RVRNO
PAWS 191356Z AUTO 00000KT 1/4SM FG OVC003 09/09 A3021 RMK AO2 SLP245 T00940089 RVRNO
PAWS 191256Z AUTO 00000KT 1/4SM FG OVC003 09/09 A3021 RMK AO2 RAB29E44 SLP246 P0000 T00890089 RVRNO
PAWS 191246Z AUTO 00000KT 3/4SM BR OVC003 09/08 A3021 RMK AO2 RAB29E44 P0000 RVRNO
PAWS 191231Z AUTO 00000KT 2SM -RA BR OVC003 09/09 A3021 RMK AO2 VIS 1 1/4V5 RAB29 P0000
PAWS 191213Z AUTO 00000KT 6SM BR OVC003 09/09 A3022 RMK AO2
PAWS 191203Z AUTO 00000KT 2SM BR OVC003 09/08 A3022 RMK AO2
PAWS 191153Z AUTO 00000KT 1SM BR OVC003 08/08 A3022 RMK AO2 SLP249 7//// T00830083 10100 20078 53003 RVRNO
PAWS 191152Z AUTO 00000KT 1SM BR OVC003 08/08 A3022 RMK AO2 RVRNO
PAWS 191115Z AUTO 00000KT 3/4SM BR OVC003 08/07 A3021 RMK AO2 RVRNO
PAWS 191111Z AUTO 00000KT 1 1/2SM BR OVC003 08/08 A3021 RMK AO2 VIS 1/2V5
PAWS 191104Z AUTO 00000KT 3SM BR OVC003 08/08 A3021 RMK AO2
PAWS 191054Z AUTO 00000KT 2SM BR OVC003 08/08 A3021 RMK AO2
PAWS 191049Z AUTO 00000KT 1 1/4SM BR OVC005 08/08 A3021 RMK AO2 CIG 002V007
PAWS 191026Z AUTO 00000KT 3/4SM BR OVC005 08/08 A3021 RMK AO2 CIG 002V006 RVRNO
PAWS 191022Z AUTO 00000KT 1 1/2SM BR OVC005 08/08 A3021 RMK AO2 CIG 002V006
PAWS 190956Z AUTO 00000KT 10SM BKN003 OVC075 08/08 A3021 RMK AO2 SLP246 T00830078
PAWS 190856Z AUTO 00000KT 10SM SCT023 BKN030 OVC037 08/08 A3021 RMK AO2 SLP245 T00830078 401610078 51003
PAWS 190854Z AUTO 00000KT 10SM SCT023 BKN030 OVC037 08/08 A3021 RMK AO2 401610078
PAWS 190803Z AUTO 00000KT 10SM BKN028 OVC075 08/08 A3020 RMK AO2
PAWS 190756Z AUTO 00000KT 10SM SCT028 OVC070 09/08 A3020 RMK AO2 SLP244 T00890083
PAWS 190720Z AUTO 00000KT 10SM FEW004 BKN100 08/07 A3020 RMK AO2
PAWS 190656Z AUTO 00000KT 10SM FEW095 09/08 A3020 RMK AO2 SLP242 T00940083
PAWS 190556Z AUTO 22003KT 10SM FEW110 10/09 A3019 RMK AO2 SLP241 6//// T01000089 10144 20100 51003
PAWS 190456Z AUTO 23003KT 10SM SCT075 10/09 A3019 RMK AO2 SLP241 T01000094
PAWS 190356Z AUTO VRB05KT 10SM CLR 12/11 A3019 RMK AO2 SLP239 T01170106
PAWS 190156Z AUTO 00000KT 10SM SCT075 13/11 A3019 RMK AO2 SLP239 T01280111
PAWS 190056Z AUTO 00000KT 10SM CLR 13/12 A3019 RMK AO2 RAE01 SLP240 P0000 T01330117
PAWS 182356Z AUTO 00000KT 10SM -RA SCT070 13/12 A3020 RMK AO2 SLP243 P0001 60010 T01330122 10161 20122 58005
PAWS 182256Z AUTO 00000KT 10SM -RA OVC060 13/12 A3021 RMK AO2 RAB2159 SLP246 P0009 T01280117